Dennysville, Maine
Current Conditions -  °F | °C
As of 3:35 AM on Thursday 18 Dec 2014 (Local Time) from KBHB Reporting Station
Overcast Overcast  
Wind Chill: 28°   Ceiling: 1000
Heat Index: 34°   Visibility: 8mi
Dew Point: 34°   Wind: 7mph
Humidity: 100%   Direction: 320°NW
Pressure: 29.55"   Gusts: NA
Location:  44.9°N, 67.23°W
Report Text: KBHB 180835Z AUTO 32006KT 8SM OVC010 01/01 A2955 RMK AO1
Loading
Personal Weather Stations






























Interactive Weather Map New forecast layout! Learn more

10-Day Weather Forecast

Advertisements
Track Severe Weather on mobile